Time;durP1;ratioP1;P1;durP2;ratioP2;P2;SDS_P1;SDS_P2;PMS_P1;PMS_P2;Temp;Humidity;BMP_temperature;BMP_pressure;BME280_temperature;BME280_humidity;BME280_pressure;Samples;Min_cycle;Max_cycle;Signal;HPM_P1;HPM_P2
2022/06/18 00:00:18;;;;;;;4.82;2.88;;;27.70;47.90;;;;;;6184691;23;20008;-64
2022/06/18 00:02:44;;;;;;;5.65;2.67;;;27.70;48.10;;;;;;6211465;23;20001;-64
2022/06/18 00:05:12;;;;;;;7.28;2.72;;;27.60;48.00;;;;;;6212509;23;20442;-64
2022/06/18 00:07:45;;;;;;;3.55;3.03;;;27.70;48.00;;;;;;6186361;23;20476;-64
2022/06/18 00:10:22;;;;;;;6.00;2.45;;;27.60;48.10;;;;;;6214755;23;20017;-63
2022/06/18 00:15:35;;;;;;;6.93;2.70;;;27.60;47.90;;;;;;6213061;23;19953;-64
2022/06/18 00:18:03;;;;;;;8.93;3.10;;;27.50;47.90;;;;;;6186433;23;20206;-64
2022/06/18 00:20:33;;;;;;;8.70;2.53;;;27.50;47.80;;;;;;6214846;23;20007;-64
2022/06/18 00:23:02;;;;;;;5.13;2.60;;;27.60;47.90;;;;;;6214810;23;20054;-64
2022/06/18 00:25:36;;;;;;;9.18;2.97;;;27.50;47.90;;;;;;6215541;23;20083;-64
2022/06/18 00:28:10;;;;;;;8.73;2.85;;;27.50;47.90;;;;;;6187193;23;20005;-64
2022/06/18 00:30:35;;;;;;;8.32;2.55;;;27.40;47.80;;;;;;6212996;23;20072;-64
2022/06/18 00:33:01;;;;;;;9.40;3.60;;;27.40;47.90;;;;;;6212999;23;20032;-63
2022/06/18 00:35:27;;;;;;;6.23;2.50;;;27.40;47.90;;;;;;6213839;23;20000;-64
2022/06/18 00:37:57;;;;;;;14.85;5.60;;;27.40;47.60;;;;;;6188474;23;20371;-64
2022/06/18 00:40:28;;;;;;;8.20;3.10;;;27.40;47.90;;;;;;6214311;23;20032;-64
2022/06/18 00:42:56;;;;;;;5.82;2.45;;;27.30;47.70;;;;;;6214315;23;20020;-64
2022/06/18 00:45:26;;;;;;;4.53;2.72;;;27.30;47.60;;;;;;6212781;23;20008;-63
2022/06/18 00:48:25;;;;;;;6.32;3.17;;;27.30;47.70;;;;;;6212582;23;20570;-64
2022/06/18 00:50:55;;;;;;;9.57;2.85;;;27.30;47.50;;;;;;6214157;23;20004;-63
2022/06/18 00:53:30;;;;;;;3.45;2.35;;;27.20;47.60;;;;;;6214575;23;20000;-63
2022/06/18 00:55:59;;;;;;;4.68;2.60;;;27.20;47.40;;;;;;6214200;23;20005;-64
2022/06/18 00:58:43;;;;;;;5.85;2.92;;;27.20;47.20;;;;;;6213176;23;20005;-64
2022/06/18 01:01:16;;;;;;;10.55;3.58;;;27.10;46.80;;;;;;6212188;23;20000;-63
2022/06/18 01:03:44;;;;;;;4.68;2.55;;;27.10;46.70;;;;;;6212871;23;20001;-63
2022/06/18 01:06:16;;;;;;;10.77;2.92;;;27.00;47.10;;;;;;6213614;23;20008;-63
2022/06/18 01:08:43;;;;;;;6.20;2.25;;;27.00;46.90;;;;;;6214276;23;20009;-64
2022/06/18 01:11:20;;;;;;;5.97;2.63;;;27.00;46.90;;;;;;6188029;23;20478;-64
2022/06/18 01:13:47;;;;;;;3.60;2.38;;;27.00;46.90;;;;;;6213550;23;20000;-64
2022/06/18 01:16:13;;;;;;;3.45;2.17;;;27.00;46.70;;;;;;6212261;23;20008;-64
2022/06/18 01:18:40;;;;;;;6.93;2.60;;;26.90;46.90;;;;;;6186012;23;20008;-63
2022/06/18 01:21:20;;;;;;;4.25;2.75;;;27.00;46.80;;;;;;6213742;23;20008;-64
2022/06/18 01:23:55;;;;;;;2.95;2.33;;;27.00;46.70;;;;;;6214297;23;20004;-63
2022/06/18 01:26:22;;;;;;;5.93;2.53;;;26.90;46.60;;;;;;6187814;23;20386;-64
2022/06/18 01:28:48;;;;;;;7.28;2.50;;;26.90;46.70;;;;;;6212133;23;20009;-64
2022/06/18 01:31:13;;;;;;;5.27;2.20;;;26.90;46.70;;;;;;6212355;23;20004;-64
2022/06/18 01:33:40;;;;;;;5.68;2.85;;;26.90;46.80;;;;;;6185565;23;20012;-64
2022/06/18 01:36:10;;;;;;;6.35;2.45;;;26.80;46.70;;;;;;6212629;23;20067;-63
2022/06/18 01:38:40;;;;;;;4.20;2.72;;;26.80;46.60;;;;;;6213194;23;19997;-64
2022/06/18 01:44:00;;;;;;;5.43;2.70;;;26.80;46.70;;;;;;6213034;23;20015;-64
2022/06/18 01:46:27;;;;;;;4.45;2.55;;;26.80;46.80;;;;;;6186050;23;20040;-64
2022/06/18 01:48:54;;;;;;;4.15;3.13;;;26.80;46.80;;;;;;6212162;23;20072;-63
2022/06/18 01:51:24;;;;;;;4.78;2.30;;;26.70;46.70;;;;;;6212645;23;20001;-64
2022/06/18 01:53:58;;;;;;;4.72;2.75;;;26.60;46.90;;;;;;6187942;23;20013;-63
2022/06/18 01:56:35;;;;;;;3.53;3.00;;;26.60;47.20;;;;;;6213887;23;20000;-63
2022/06/18 01:59:07;;;;;;;5.50;2.85;;;26.60;47.50;;;;;;6185749;23;20075;-63
2022/06/18 02:01:38;;;;;;;3.95;2.67;;;26.60;47.50;;;;;;6212193;23;20004;-63
2022/06/18 02:04:04;;;;;;;6.05;2.97;;;26.50;47.40;;;;;;6212575;23;20000;-63
2022/06/18 02:06:35;;;;;;;4.95;3.03;;;26.50;47.50;;;;;;6212843;23;20008;-64
2022/06/18 02:09:07;;;;;;;4.28;3.00;;;26.50;47.30;;;;;;6221920;22;20008;-65
2022/06/18 02:11:33;;;;;;;4.57;3.05;;;26.50;47.50;;;;;;6305117;22;20334;-65
2022/06/18 02:14:07;;;;;;;5.23;3.20;;;26.50;47.40;;;;;;6303294;22;20010;-65
2022/06/18 02:16:42;;;;;;;7.55;3.10;;;26.50;47.70;;;;;;6303831;22;20007;-65
2022/06/18 02:19:09;;;;;;;8.27;3.03;;;26.50;47.70;;;;;;6304182;22;20438;-65
2022/06/18 02:21:41;;;;;;;7.68;4.10;;;26.50;47.60;;;;;;6279315;22;20035;-65
2022/06/18 02:24:07;;;;;;;7.75;3.17;;;26.40;47.60;;;;;;6306746;22;20022;-66
2022/06/18 02:26:35;;;;;;;4.87;3.20;;;26.40;47.70;;;;;;6305998;22;20441;-65
2022/06/18 02:29:03;;;;;;;4.50;3.08;;;26.40;47.80;;;;;;6303725;22;20026;-66
2022/06/18 02:31:33;;;;;;;4.63;3.17;;;26.40;47.80;;;;;;6276540;22;20004;-65
2022/06/18 02:34:04;;;;;;;6.13;2.88;;;26.30;47.90;;;;;;6305296;22;20003;-65
2022/06/18 02:36:33;;;;;;;4.55;3.20;;;26.40;48.00;;;;;;6305111;22;20038;-65
2022/06/18 02:39:15;;;;;;;5.70;2.97;;;26.30;47.90;;;;;;6305793;22;20075;-65
2022/06/18 02:41:42;;;;;;;4.70;3.53;;;26.30;48.10;;;;;;6305632;22;20027;-65
2022/06/18 02:44:10;;;;;;;6.95;3.22;;;26.30;48.10;;;;;;6303657;22;20030;-66
2022/06/18 02:46:36;;;;;;;7.55;3.33;;;26.20;48.40;;;;;;6276607;22;20069;-65
2022/06/18 02:49:07;;;;;;;4.87;3.40;;;26.20;48.40;;;;;;6304272;22;20003;-65
2022/06/18 02:51:34;;;;;;;8.48;3.47;;;26.10;48.30;;;;;;6304804;22;20007;-65
2022/06/18 02:54:00;;;;;;;6.43;3.25;;;26.10;48.30;;;;;;6305472;22;20002;-65
2022/06/18 02:56:26;;;;;;;4.90;3.03;;;26.10;48.50;;;;;;6305335;22;19999;-65
2022/06/18 02:58:52;;;;;;;7.10;3.90;;;26.10;48.40;;;;;;6303779;22;20070;-65
2022/06/18 03:01:21;;;;;;;7.57;4.03;;;26.10;48.40;;;;;;6303706;22;20430;-65
2022/06/18 03:03:51;;;;;;;6.10;3.20;;;26.10;48.50;;;;;;6276520;22;20058;-65
2022/06/18 03:06:19;;;;;;;8.90;4.32;;;26.00;48.90;;;;;;6277929;22;20144;-65
2022/06/18 03:08:46;;;;;;;9.30;4.88;;;26.00;48.90;;;;;;6278082;22;20381;-66
2022/06/18 03:13:59;;;;;;;4.95;3.45;;;26.00;49.00;;;;;;6304590;22;20018;-65
2022/06/18 03:16:26;;;;;;;6.28;3.63;;;25.90;49.20;;;;;;6303707;22;20034;-66
2022/06/18 03:18:54;;;;;;;6.25;4.15;;;25.90;49.40;;;;;;6303901;22;20019;-65
2022/06/18 03:21:45;;;;;;;8.48;4.75;;;25.90;49.50;;;;;;6277297;22;20029;-66
2022/06/18 03:24:11;;;;;;;19.45;4.82;;;25.90;49.70;;;;;;6305149;22;20106;-66
2022/06/18 03:26:37;;;;;;;9.10;4.60;;;25.90;49.80;;;;;;6305479;22;20334;-66
2022/06/18 03:29:05;;;;;;;6.78;4.07;;;25.80;50.00;;;;;;6276433;22;20226;-65
2022/06/18 03:31:31;;;;;;;7.72;5.22;;;25.90;50.20;;;;;;6303550;22;20124;-65
2022/06/18 03:33:57;;;;;;;7.50;4.80;;;25.90;50.40;;;;;;6303326;22;19995;-66
2022/06/18 03:36:25;;;;;;;10.55;4.60;;;25.80;50.60;;;;;;6304365;22;20346;-66
2022/06/18 03:38:51;;;;;;;12.88;4.82;;;25.70;50.60;;;;;;6305275;22;19995;-66
2022/06/18 03:41:18;;;;;;;6.67;4.80;;;25.80;51.00;;;;;;6305424;22;20307;-66
2022/06/18 03:43:44;;;;;;;4.85;3.80;;;25.80;50.90;;;;;;6302971;22;19996;-66
2022/06/18 03:46:12;;;;;;;6.60;4.33;;;25.70;50.80;;;;;;6303896;22;20262;-59
2022/06/18 03:48:50;;;;;;;10.13;5.10;;;25.70;51.00;;;;;;6302875;22;20003;-62
2022/06/18 03:51:16;;;;;;;9.80;4.72;;;25.80;51.10;;;;;;6304256;22;20006;-58
2022/06/18 03:53:41;;;;;;;18.25;5.35;;;25.70;51.50;;;;;;6305083;22;20008;-61
2022/06/18 03:56:15;;;;;;;19.77;5.27;;;25.70;51.80;;;;;;6305532;22;20484;-58
2022/06/18 03:58:42;;;;;;;10.98;5.00;;;25.70;52.10;;;;;;6303034;22;20012;-58
2022/06/18 04:01:16;;;;;;;7.45;4.38;;;25.70;52.00;;;;;;6303322;22;20003;-57
2022/06/18 04:03:42;;;;;;;6.95;4.28;;;25.70;52.20;;;;;;6303779;22;20074;-58
2022/06/18 04:06:10;;;;;;;9.33;4.60;;;25.60;52.40;;;;;;6305176;22;20035;-60
2022/06/18 04:08:36;;;;;;;7.85;4.63;;;25.70;52.60;;;;;;6305606;22;20014;-60
2022/06/18 04:11:03;;;;;;;11.55;5.82;;;25.60;53.00;;;;;;6305407;22;20007;-60
2022/06/18 04:13:28;;;;;;;8.27;5.22;;;25.60;53.30;;;;;;6305672;22;20358;-62
2022/06/18 04:15:55;;;;;;;7.17;5.47;;;25.50;53.60;;;;;;6304408;22;20010;-62
2022/06/18 04:18:21;;;;;;;10.75;5.43;;;25.50;53.50;;;;;;6305033;22;19995;-61
2022/06/18 04:20:47;;;;;;;9.30;5.53;;;25.40;53.60;;;;;;6305606;22;20007;-64
2022/06/18 04:23:15;;;;;;;8.33;5.30;;;25.50;54.00;;;;;;6305631;22;20005;-59
2022/06/18 04:25:42;;;;;;;6.90;5.63;;;25.40;53.80;;;;;;6305526;22;20003;-60
2022/06/18 04:28:09;;;;;;;8.20;5.43;;;25.40;54.00;;;;;;6305348;22;20033;-61
2022/06/18 04:30:35;;;;;;;6.93;5.20;;;25.40;54.20;;;;;;6305427;22;20010;-63
2022/06/18 04:33:01;;;;;;;8.40;6.67;;;25.40;54.40;;;;;;6305606;22;20003;-62
2022/06/18 04:35:27;;;;;;;9.35;5.97;;;25.50;54.50;;;;;;6278238;22;20014;-62
2022/06/18 04:37:53;;;;;;;6.07;5.40;;;25.50;54.60;;;;;;6305204;22;20038;-62
2022/06/18 04:40:32;;;;;;;8.70;5.93;;;25.60;54.40;;;;;;6305342;22;20542;-60
2022/06/18 04:43:07;;;;;;;9.45;5.90;;;25.50;54.50;;;;;;6305781;22;20003;-57
2022/06/18 04:45:34;;;;;;;12.85;5.88;;;25.60;54.70;;;;;;6305390;22;20495;-56
2022/06/18 04:48:00;;;;;;;6.60;5.35;;;25.60;54.80;;;;;;6278042;22;20056;-56
2022/06/18 04:50:33;;;;;;;9.18;5.68;;;25.60;54.40;;;;;;6277985;22;20003;-53
2022/06/18 04:52:59;;;;;;;6.80;5.25;;;25.60;54.40;;;;;;6305783;22;20428;-55
2022/06/18 04:55:26;;;;;;;6.85;5.22;;;25.60;54.30;;;;;;6305853;22;20014;-53
2022/06/18 04:57:52;;;;;;;8.02;5.38;;;25.60;54.20;;;;;;6307184;22;20030;-54
2022/06/18 05:00:18;;;;;;;9.87;5.67;;;25.60;54.10;;;;;;6306485;22;19999;-56
2022/06/18 05:02:44;;;;;;;10.43;5.70;;;25.60;54.30;;;;;;6306558;22;20241;-62
2022/06/18 05:05:18;;;;;;;6.87;5.50;;;25.60;54.20;;;;;;6306740;22;20003;-68
2022/06/18 05:07:43;;;;;;;9.00;6.15;;;25.70;54.20;;;;;;6306762;22;20006;-69
2022/06/18 05:10:10;;;;;;;7.73;5.77;;;25.70;54.10;;;;;;6306893;22;20011;-68
2022/06/18 05:12:36;;;;;;;11.88;6.10;;;25.70;54.20;;;;;;6305125;22;20026;-69
2022/06/18 05:15:02;;;;;;;11.77;6.20;;;25.70;54.50;;;;;;6304335;22;19999;-70
2022/06/18 05:17:31;;;;;;;11.27;5.90;;;25.80;54.50;;;;;;6304257;22;20456;-69
2022/06/18 05:19:57;;;;;;;12.70;7.20;;;25.90;54.50;;;;;;6304182;22;20461;-67
2022/06/18 05:22:23;;;;;;;11.43;6.63;;;25.90;54.70;;;;;;6277234;22;19999;-67
2022/06/18 05:24:49;;;;;;;8.35;5.20;;;25.90;54.80;;;;;;6304220;22;20221;-67
2022/06/18 05:27:31;;;;;;;10.27;5.53;;;26.00;54.70;;;;;;6277194;22;20011;-67
2022/06/18 05:29:57;;;;;;;9.25;6.40;;;26.10;54.80;;;;;;6306555;22;20380;-67
2022/06/18 05:32:23;;;;;;;11.43;6.35;;;26.10;54.10;;;;;;6279067;22;20033;-67
2022/06/18 05:34:50;;;;;;;9.35;6.80;;;26.20;54.60;;;;;;6279408;22;20003;-67
2022/06/18 05:37:24;;;;;;;10.90;5.78;;;26.30;54.80;;;;;;6306511;22;20038;-67
2022/06/18 05:39:50;;;;;;;12.35;6.90;;;26.30;54.60;;;;;;6279362;22;19999;-66
2022/06/18 05:42:16;;;;;;;10.35;6.28;;;26.40;54.90;;;;;;6306176;22;20005;-69
2022/06/18 05:44:42;;;;;;;15.67;6.70;;;26.30;54.80;;;;;;6279144;22;20445;-67
2022/06/18 05:47:22;;;;;;;9.77;6.60;;;26.40;55.40;;;;;;6306229;22;20453;-67
2022/06/18 05:49:48;;;;;;;7.78;5.85;;;26.40;54.70;;;;;;6306686;22;19999;-67
2022/06/18 05:52:14;;;;;;;11.40;5.80;;;26.40;54.90;;;;;;6306129;22;20053;-69
2022/06/18 05:54:40;;;;;;;5.97;5.47;;;26.40;55.00;;;;;;6306631;22;20018;-66
2022/06/18 05:57:06;;;;;;;18.52;5.85;;;26.50;55.20;;;;;;6306001;22;20078;-67
2022/06/18 05:59:33;;;;;;;15.15;5.68;;;26.60;55.30;;;;;;6306167;22;20429;-67
2022/06/18 06:01:59;;;;;;;12.23;6.53;;;26.70;55.40;;;;;;6306439;22;19999;-68
2022/06/18 06:04:25;;;;;;;10.47;6.27;;;26.70;55.50;;;;;;6305678;22;20137;-67
2022/06/18 06:06:51;;;;;;;5.97;5.38;;;26.70;55.30;;;;;;6305757;22;20380;-67
2022/06/18 06:12:03;;;;;;;9.73;5.85;;;26.80;55.60;;;;;;6306078;22;20099;-66
2022/06/18 06:14:29;;;;;;;10.50;5.97;;;26.90;55.40;;;;;;6306174;22;20318;-65
2022/06/18 06:16:57;;;;;;;10.53;5.57;;;26.90;55.40;;;;;;6305937;22;20443;-65
2022/06/18 06:19:23;;;;;;;6.35;5.72;;;27.00;55.30;;;;;;6306085;22;20002;-66
2022/06/18 06:21:49;;;;;;;;;;;27.10;55.40;;;;;;6306786;22;20005;-65
2022/06/18 06:24:14;;;;;;;13.82;5.20;;;27.00;54.60;;;;;;6305667;22;19973;-65
2022/06/18 06:26:40;;;;;;;15.10;5.40;;;27.00;54.70;;;;;;6279068;22;20003;-66
2022/06/18 06:29:07;;;;;;;10.90;5.07;;;27.10;54.70;;;;;;6278344;22;20006;-65
2022/06/18 06:31:33;;;;;;;;;;;27.10;54.50;;;;;;6279108;22;20746;-65
2022/06/18 06:33:59;;;;;;;19.13;10.45;;;27.10;54.40;;;;;;6305852;22;19898;-66
2022/06/18 06:36:24;;;;;;;11.23;5.27;;;27.20;54.40;;;;;;6305607;22;20007;-66
2022/06/18 06:38:50;;;;;;;8.27;4.37;;;27.20;54.10;;;;;;6305714;22;20022;-66
2022/06/18 06:41:23;;;;;;;7.30;3.90;;;27.20;54.10;;;;;;6305934;22;20027;-66
2022/06/18 06:43:49;;;;;;;7.70;4.20;;;27.30;54.80;;;;;;6305922;22;20000;-66
2022/06/18 06:46:16;;;;;;;9.20;3.53;;;27.40;54.60;;;;;;6306161;22;20080;-66
2022/06/18 06:48:42;;;;;;;7.38;3.95;;;27.50;54.20;;;;;;6305581;22;20380;-66
2022/06/18 06:51:14;;;;;;;10.27;4.85;;;27.50;54.00;;;;;;6305931;22;20035;-66
2022/06/18 06:53:40;;;;;;;6.70;3.75;;;27.60;53.80;;;;;;6278254;22;20090;-66
2022/06/18 06:58:54;;;;;;;13.38;4.00;;;27.60;53.00;;;;;;6305550;22;20033;-66
2022/06/18 07:01:20;;;;;;;13.17;4.70;;;27.60;53.40;;;;;;6278622;22;20003;-66
2022/06/18 07:03:46;;;;;;;5.95;3.97;;;27.70;53.70;;;;;;6305636;22;20438;-64
2022/06/18 07:06:13;;;;;;;6.80;3.60;;;27.70;53.10;;;;;;6305467;22;20003;-61
2022/06/18 07:08:40;;;;;;;8.90;4.07;;;27.80;53.00;;;;;;6305447;22;20342;-66
2022/06/18 07:11:06;;;;;;;7.25;3.50;;;27.80;52.90;;;;;;6305723;22;20388;-66
2022/06/18 07:13:32;;;;;;;6.88;3.33;;;27.80;53.20;;;;;;6305536;22;19999;-66
2022/06/18 07:15:58;;;;;;;12.43;5.53;;;27.90;53.20;;;;;;6278142;22;20015;-66
2022/06/18 07:18:31;;;;;;;25.98;4.40;;;28.00;52.60;;;;;;6304986;22;20174;-66
2022/06/18 07:20:57;;;;;;;11.07;3.72;;;28.00;52.50;;;;;;6277917;22;20007;-66
2022/06/18 07:23:23;;;;;;;9.02;4.35;;;28.10;52.60;;;;;;6305749;22;20066;-67
2022/06/18 07:25:48;;;;;;;7.83;3.47;;;28.10;52.40;;;;;;6305652;22;20090;-67
2022/06/18 07:28:14;;;;;;;10.60;4.47;;;28.10;52.10;;;;;;6305328;22;20472;-67
2022/06/18 07:30:40;;;;;;;6.53;3.57;;;28.20;52.30;;;;;;6278025;22;20007;-67
2022/06/18 07:33:07;;;;;;;11.40;3.50;;;28.20;52.20;;;;;;6305364;22;20007;-64
2022/06/18 07:35:38;;;;;;;;;;;28.30;51.70;;;;;;6306243;22;20022;-68
2022/06/18 07:38:04;;;;;;;9.82;3.20;;;28.30;51.80;;;;;;6277838;22;19902;-68
2022/06/18 07:40:51;;;;;;;7.23;2.93;;;28.40;51.90;;;;;;6305449;22;20000;-68
2022/06/18 07:43:39;;;;;;;8.00;3.63;;;28.50;51.90;;;;;;6305325;22;19995;-68
2022/06/18 07:46:07;;;;;;;6.20;3.50;;;28.60;52.20;;;;;;6305460;22;19999;-66
2022/06/18 07:48:33;;;;;;;8.93;3.47;;;28.60;51.90;;;;;;6305097;22;20009;-66
2022/06/18 07:51:00;;;;;;;6.32;3.08;;;28.60;52.00;;;;;;6305457;22;19995;-68
2022/06/18 07:53:26;;;;;;;6.45;4.32;;;28.70;51.60;;;;;;6277720;22;20007;-69
2022/06/18 07:55:54;;;;;;;5.38;3.80;;;28.80;50.80;;;;;;6278133;22;19999;-65
2022/06/18 07:58:20;;;;;;;11.00;4.13;;;28.80;50.90;;;;;;6304939;22;20079;-65
2022/06/18 08:00:48;;;;;;;9.65;4.03;;;28.80;51.30;;;;;;6305312;22;19999;-62
2022/06/18 08:03:15;;;;;;;13.15;3.83;;;28.90;51.60;;;;;;6305357;22;19996;-64
2022/06/18 08:05:42;;;;;;;7.20;4.13;;;28.90;51.40;;;;;;6305074;22;20006;-64
2022/06/18 08:08:09;;;;;;;9.18;3.30;;;29.00;51.20;;;;;;6277528;22;20013;-56
2022/06/18 08:10:37;;;;;;;9.38;5.07;;;29.00;50.90;;;;;;6277972;22;20094;-63
2022/06/18 08:13:04;;;;;;;14.32;4.00;;;29.00;50.90;;;;;;6305123;22;19999;-63
2022/06/18 08:15:30;;;;;;;;;;;29.00;51.00;;;;;;6305681;22;20026;-64
2022/06/18 08:17:56;;;;;;;7.88;3.60;;;29.00;51.20;;;;;;6305863;22;19903;-61
2022/06/18 08:20:23;;;;;;;7.35;3.35;;;29.10;51.20;;;;;;6277634;22;19999;-62
2022/06/18 08:22:50;;;;;;;;;;;29.10;50.50;;;;;;6305857;22;20077;-63
2022/06/18 08:25:18;;;;;;;6.75;3.53;;;29.10;50.80;;;;;;6305233;22;19921;-63
2022/06/18 08:27:46;;;;;;;9.98;3.53;;;29.10;50.60;;;;;;6277635;22;20388;-64
2022/06/18 08:30:13;;;;;;;5.63;3.92;;;29.20;50.40;;;;;;6278537;22;20007;-62
2022/06/18 08:32:39;;;;;;;9.43;3.88;;;29.30;50.20;;;;;;6307204;22;20007;-64
2022/06/18 08:35:05;;;;;;;6.10;3.38;;;29.30;49.80;;;;;;6307272;22;20354;-63
2022/06/18 08:37:32;;;;;;;14.10;3.45;;;29.30;49.80;;;;;;6306962;22;20007;-64
2022/06/18 08:39:59;;;;;;;8.82;3.50;;;29.40;49.80;;;;;;6306790;22;20384;-64
2022/06/18 08:42:47;;;;;;;8.70;3.50;;;29.40;49.30;;;;;;6307162;22;20027;-62
2022/06/18 08:45:21;;;;;;;8.27;3.10;;;29.50;49.20;;;;;;6307254;22;20007;-63
2022/06/18 08:48:23;;;;;;;7.53;3.40;;;29.50;49.00;;;;;;6306469;22;20022;-64
2022/06/18 08:51:37;;;;;;;8.15;3.13;;;29.60;48.40;;;;;;6306308;22;19999;-63
2022/06/18 08:54:27;;;;;;;8.70;3.00;;;29.60;48.80;;;;;;6171424;22;20523;-63
2022/06/18 08:57:23;;;;;;;9.00;3.78;;;29.70;48.60;;;;;;6306707;22;20066;-63
2022/06/18 09:00:02;;;;;;;14.98;3.40;;;29.80;47.90;;;;;;6279171;22;20041;-63
2022/06/18 09:02:46;;;;;;;7.68;3.15;;;29.80;47.90;;;;;;6306918;22;20000;-63
2022/06/18 09:39:36;;;;;;;8.20;3.20;;;29.10;48.40;;;;;;5068168;28;20412;-55
2022/06/18 09:42:07;;;;;;;5.05;2.72;;;29.10;48.30;;;;;;5068532;28;20055;-55
2022/06/18 09:44:57;;;;;;;6.57;3.33;;;29.20;48.30;;;;;;5037127;28;20080;-56
2022/06/18 09:47:36;;;;;;;7.60;2.90;;;29.50;48.20;;;;;;5055676;28;20035;-57
2022/06/18 09:50:11;;;;;;;7.25;3.40;;;29.70;48.20;;;;;;5048712;28;20030;-57
2022/06/18 09:52:39;;;;;;;6.55;2.65;;;30.00;47.10;;;;;;5028436;28;20113;-55
2022/06/18 09:55:34;;;;;;;7.43;3.17;;;30.30;46.50;;;;;;5055122;28;20084;-55
2022/06/18 09:58:03;;;;;;;15.27;10.55;;;30.40;45.60;;;;;;5074455;28;20029;-58
2022/06/18 10:00:31;;;;;;;9.10;4.85;;;30.50;45.60;;;;;;5039023;28;20429;-54
2022/06/18 10:03:12;;;;;;;9.13;3.33;;;30.60;45.20;;;;;;5033869;28;20024;-54
2022/06/18 10:08:35;;;;;;;10.13;3.90;;;30.90;44.10;;;;;;5052954;28;20063;-60
2022/06/18 10:11:08;;;;;;;4.53;3.22;;;31.00;44.50;;;;;;5067855;28;20021;-59
2022/06/18 10:13:47;;;;;;;6.78;3.03;;;31.10;44.40;;;;;;5067916;28;20491;-59
2022/06/18 10:16:33;;;;;;;6.90;3.30;;;31.20;43.80;;;;;;5066619;28;20024;-58
2022/06/18 10:19:13;;;;;;;5.10;2.78;;;31.30;43.50;;;;;;5066171;28;20020;-59
2022/06/18 10:21:46;;;;;;;4.32;2.83;;;31.30;44.10;;;;;;5067448;28;20070;-59
2022/06/18 10:24:28;;;;;;;6.72;3.03;;;31.50;43.70;;;;;;5067793;28;20393;-58
2022/06/18 10:27:03;;;;;;;3.67;2.85;;;31.50;43.40;;;;;;5067683;28;20021;-59
2022/06/18 10:29:59;;;;;;;7.50;2.97;;;31.50;43.90;;;;;;5066347;28;20102;-59
2022/06/18 10:32:51;;;;;;;5.55;3.17;;;31.60;43.50;;;;;;5066952;28;20047;-58
2022/06/18 10:35:29;;;;;;;4.32;2.22;;;31.70;43.30;;;;;;5067450;28;20024;-58
2022/06/18 10:38:21;;;;;;;4.43;2.80;;;31.80;43.60;;;;;;5067092;28;20021;-56
2022/06/18 10:40:49;;;;;;;6.85;3.33;;;31.80;42.80;;;;;;5065960;28;20536;-57
2022/06/18 10:43:39;;;;;;;7.00;3.00;;;31.90;43.00;;;;;;5067453;28;20032;-60
2022/06/18 10:46:14;;;;;;;8.38;3.88;;;31.90;42.50;;;;;;5067384;28;20047;-60
2022/06/18 10:48:46;;;;;;;5.15;3.28;;;32.00;43.50;;;;;;5065264;28;20366;-58
2022/06/18 10:51:21;;;;;;;7.10;2.60;;;32.10;43.20;;;;;;5041908;28;20057;-58
2022/06/18 10:53:53;;;;;;;3.75;2.58;;;32.10;42.90;;;;;;5040905;28;20424;-58
2022/06/18 10:56:22;;;;;;;9.82;4.72;;;32.20;42.10;;;;;;5052459;28;20029;-60
2022/06/18 10:59:00;;;;;;;12.60;3.88;;;32.30;42.20;;;;;;5050612;28;20032;-60
2022/06/18 11:01:43;;;;;;;7.70;4.47;;;32.40;41.50;;;;;;5048085;28;20029;-60
2022/06/18 11:04:23;;;;;;;11.52;5.82;;;32.60;41.00;;;;;;5053341;28;20464;-56
2022/06/18 11:06:53;;;;;;;12.73;6.00;;;32.60;39.80;;;;;;5052795;28;20060;-59
2022/06/18 11:09:34;;;;;;;9.90;3.40;;;32.60;40.40;;;;;;5052369;28;20029;-59
2022/06/18 11:12:07;;;;;;;7.22;3.92;;;32.60;40.50;;;;;;5047499;28;20148;-59
2022/06/18 11:14:40;;;;;;;10.38;5.13;;;32.80;40.70;;;;;;5052688;28;20059;-59
2022/06/18 11:17:18;;;;;;;10.20;5.57;;;32.80;39.70;;;;;;5051581;28;20501;-59
2022/06/18 11:19:48;;;;;;;9.10;5.90;;;32.90;40.30;;;;;;5050888;28;20036;-58
2022/06/18 11:22:26;;;;;;;10.93;6.80;;;33.00;39.50;;;;;;5045913;28;20474;-57
2022/06/18 11:25:18;;;;;;;6.60;4.10;;;33.00;39.50;;;;;;5052758;28;20432;-57
2022/06/18 11:27:46;;;;;;;6.60;3.78;;;33.10;39.20;;;;;;5052312;28;20485;-58
2022/06/18 11:30:29;;;;;;;8.70;4.45;;;33.20;39.90;;;;;;5046965;28;20031;-58
2022/06/18 11:32:55;;;;;;;9.73;3.60;;;33.30;38.70;;;;;;5053122;28;20032;-57
2022/06/18 11:35:27;;;;;;;6.33;3.43;;;33.30;37.80;;;;;;5019020;28;20164;-57
2022/06/18 11:38:02;;;;;;;2.83;2.50;;;33.30;37.20;;;;;;5019696;28;20083;-59
2022/06/18 11:40:30;;;;;;;5.97;2.95;;;33.50;36.70;;;;;;5027414;28;20056;-59
2022/06/18 11:43:06;;;;;;;6.30;2.58;;;33.50;37.30;;;;;;5031820;28;20030;-59
2022/06/18 11:45:45;;;;;;;4.53;2.20;;;33.50;37.40;;;;;;5049031;28;20401;-57
2022/06/18 11:48:38;;;;;;;6.18;2.63;;;33.60;37.90;;;;;;5052029;28;20032;-58
2022/06/18 11:51:07;;;;;;;3.88;2.35;;;33.60;37.30;;;;;;5043577;28;20017;-59
2022/06/18 11:53:51;;;;;;;7.10;2.63;;;33.60;37.60;;;;;;5025968;28;20565;-59
2022/06/18 11:57:10;;;;;;;2.67;2.17;;;33.80;37.70;;;;;;5015165;28;20025;-58
2022/06/18 11:59:52;;;;;;;4.53;2.78;;;33.90;36.70;;;;;;5027247;28;20098;-59
2022/06/18 12:02:39;;;;;;;4.45;2.08;;;34.00;37.00;;;;;;5028458;28;20036;-58
2022/06/18 12:05:33;;;;;;;6.43;2.85;;;34.10;36.90;;;;;;5026636;28;20029;-59
2022/06/18 12:08:01;;;;;;;5.43;2.40;;;34.10;36.50;;;;;;5031127;28;20022;-59
2022/06/18 12:10:41;;;;;;;6.55;2.50;;;34.10;37.10;;;;;;5035333;28;20477;-58
2022/06/18 12:13:36;;;;;;;4.00;2.30;;;34.20;37.30;;;;;;5051105;28;20051;-57
2022/06/18 12:16:26;;;;;;;8.32;2.30;;;34.30;36.70;;;;;;5050143;28;20075;-58
2022/06/18 12:19:10;;;;;;;2.88;2.40;;;34.30;36.50;;;;;;5028561;28;20394;-58
2022/06/18 12:22:02;;;;;;;4.45;2.42;;;34.40;36.90;;;;;;5014624;28;20138;-59
2022/06/18 12:24:56;;;;;;;4.63;2.38;;;34.40;36.20;;;;;;5026159;28;20066;-58
2022/06/18 12:27:26;;;;;;;4.85;2.30;;;34.50;36.50;;;;;;5027694;28;20032;-57
2022/06/18 12:30:16;;;;;;;5.25;2.22;;;34.50;35.90;;;;;;5050631;28;20040;-55
2022/06/18 12:33:05;;;;;;;3.10;2.45;;;34.60;36.00;;;;;;5050439;28;20025;-58
2022/06/18 12:35:43;;;;;;;6.00;3.42;;;34.60;36.20;;;;;;5052023;28;20462;-57
2022/06/18 12:38:09;;;;;;;3.85;2.00;;;34.70;35.10;;;;;;5036552;28;20509;-59
2022/06/18 12:40:51;;;;;;;5.43;2.22;;;34.70;34.90;;;;;;5051598;28;20679;-58
2022/06/18 12:43:16;;;;;;;7.78;2.53;;;34.70;35.10;;;;;;5050873;28;20029;-58
2022/06/18 12:46:06;;;;;;;6.93;2.40;;;34.80;34.70;;;;;;5044377;28;20075;-55
2022/06/18 12:48:38;;;;;;;6.50;2.33;;;35.00;35.80;;;;;;5046418;28;20094;-58
2022/06/18 12:51:22;;;;;;;3.65;2.10;;;35.10;35.90;;;;;;5030831;28;20409;-59
2022/06/18 12:54:00;;;;;;;5.78;2.10;;;35.20;36.00;;;;;;5049638;28;20033;-57
2022/06/18 12:56:40;;;;;;;2.65;2.20;;;35.30;35.00;;;;;;5043248;28;20044;-58
2022/06/18 12:59:20;;;;;;;3.53;2.38;;;35.50;34.80;;;;;;5051442;28;20482;-58
2022/06/18 13:02:12;;;;;;;7.82;2.10;;;35.50;34.00;;;;;;5033541;28;20026;-59
2022/06/18 13:05:26;;;;;;;3.53;3.05;;;35.60;34.60;;;;;;5022489;28;20022;-57
2022/06/18 13:08:07;;;;;;;6.57;2.30;;;35.70;34.10;;;;;;5023269;28;20045;-59
2022/06/18 13:10:37;;;;;;;3.47;2.30;;;35.80;33.80;;;;;;5031457;28;20057;-59
2022/06/18 13:13:27;;;;;;;5.18;2.38;;;35.80;33.80;;;;;;5038313;28;20041;-57
2022/06/18 13:16:27;;;;;;;3.17;2.35;;;35.80;33.30;;;;;;5048589;28;20028;-59
2022/06/18 13:19:17;;;;;;;3.28;2.42;;;35.90;33.30;;;;;;5037247;28;20084;-58
2022/06/18 13:21:45;;;;;;;2.42;2.20;;;36.10;33.90;;;;;;5033262;28;20026;-59
2022/06/18 13:30:04;;;;;;;5.28;2.33;;;38.20;32.00;;;;;;5050545;28;20067;-59
2022/06/18 13:32:45;;;;;;;3.20;2.35;;;39.60;30.90;;;;;;5049442;28;20025;-59
2022/06/18 13:35:34;;;;;;;10.93;2.20;;;40.90;29.70;;;;;;5048426;28;20025;-58
2022/06/18 13:38:35;;;;;;;7.97;2.05;;;42.10;28.90;;;;;;5041287;28;20036;-58
2022/06/18 13:41:31;;;;;;;4.72;2.42;;;43.00;28.00;;;;;;5049673;28;20478;-58
2022/06/18 13:44:17;;;;;;;3.70;2.08;;;44.00;27.10;;;;;;5047683;28;20014;-60
2022/06/18 13:46:49;;;;;;;4.43;2.25;;;44.70;27.10;;;;;;5045408;28;20025;-58
2022/06/18 13:49:24;;;;;;;4.63;2.60;;;45.80;26.40;;;;;;5021945;28;20679;-60
2022/06/18 13:52:00;;;;;;;6.43;2.40;;;46.70;25.70;;;;;;5030781;28;20083;-59
2022/06/18 13:54:28;;;;;;;;;;;47.50;25.30;;;;;;5043317;28;20024;-59
2022/06/18 13:57:04;;;;;;;4.80;2.88;;;48.20;25.70;;;;;;5048198;28;19909;-58
2022/06/18 13:59:31;;;;;;;6.18;2.72;;;48.80;24.70;;;;;;5034437;28;20769;-59
2022/06/18 14:02:01;;;;;;;6.82;2.40;;;49.20;24.80;;;;;;5040090;28;20975;-58
2022/06/18 14:04:36;;;;;;;24.75;3.85;;;49.60;23.90;;;;;;5029232;28;20496;-59
2022/06/18 14:07:07;;;;;;;10.63;3.22;;;50.00;23.90;;;;;;5033538;28;20025;-58
2022/06/18 14:09:45;;;;;;;4.32;2.78;;;50.50;23.70;;;;;;5035060;28;20056;-57